sensor_id;sensor_type;location;lat;lon;timestamp;P1;durP1;ratioP1;P2;durP2;ratioP2
24751;SDS011;27246;52.376;4.628;2023-04-03T00:04:27;3.17;;;1.90;;
24751;SDS011;27246;52.376;4.628;2023-04-03T00:09:29;4.50;;;2.42;;
24751;SDS011;27246;52.376;4.628;2023-04-03T00:14:30;3.75;;;1.90;;
24751;SDS011;27246;52.376;4.628;2023-04-03T00:19:32;4.72;;;2.45;;
24751;SDS011;27246;52.376;4.628;2023-04-03T00:24:34;2.83;;;2.05;;
24751;SDS011;27246;52.376;4.628;2023-04-03T00:29:36;4.00;;;2.35;;
24751;SDS011;27246;52.376;4.628;2023-04-03T00:34:37;4.97;;;2.28;;
24751;SDS011;27246;52.376;4.628;2023-04-03T00:39:39;2.92;;;1.80;;
24751;SDS011;27246;52.376;4.628;2023-04-03T00:49:42;4.03;;;2.20;;
24751;SDS011;27246;52.376;4.628;2023-04-03T00:54:47;3.13;;;1.80;;
24751;SDS011;27246;52.376;4.628;2023-04-03T00:59:51;2.55;;;1.90;;
24751;SDS011;27246;52.376;4.628;2023-04-03T01:04:56;2.20;;;1.80;;
24751;SDS011;27246;52.376;4.628;2023-04-03T01:09:59;3.40;;;2.00;;
24751;SDS011;27246;52.376;4.628;2023-04-03T01:15:10;4.05;;;1.95;;
24751;SDS011;27246;52.376;4.628;2023-04-03T01:25:59;3.20;;;1.92;;
24751;SDS011;27246;52.376;4.628;2023-04-03T01:36:25;4.40;;;1.90;;
24751;SDS011;27246;52.376;4.628;2023-04-03T01:41:29;3.22;;;2.08;;
24751;SDS011;27246;52.376;4.628;2023-04-03T01:46:40;2.20;;;1.80;;
24751;SDS011;27246;52.376;4.628;2023-04-03T01:51:43;2.15;;;1.63;;
24751;SDS011;27246;52.376;4.628;2023-04-03T01:56:45;3.95;;;1.55;;
24751;SDS011;27246;52.376;4.628;2023-04-03T02:01:48;2.55;;;1.48;;
24751;SDS011;27246;52.376;4.628;2023-04-03T02:06:49;3.28;;;2.15;;
24751;SDS011;27246;52.376;4.628;2023-04-03T02:11:51;4.28;;;2.05;;
24751;SDS011;27246;52.376;4.628;2023-04-03T02:16:53;3.85;;;2.28;;
24751;SDS011;27246;52.376;4.628;2023-04-03T02:21:56;4.05;;;2.38;;
24751;SDS011;27246;52.376;4.628;2023-04-03T02:26:58;4.72;;;2.13;;
24751;SDS011;27246;52.376;4.628;2023-04-03T02:32:00;4.57;;;1.83;;
24751;SDS011;27246;52.376;4.628;2023-04-03T02:37:03;3.63;;;1.98;;
24751;SDS011;27246;52.376;4.628;2023-04-03T02:42:05;5.18;;;2.20;;
24751;SDS011;27246;52.376;4.628;2023-04-03T02:47:07;5.75;;;2.60;;
24751;SDS011;27246;52.376;4.628;2023-04-03T02:52:09;8.30;;;3.05;;
24751;SDS011;27246;52.376;4.628;2023-04-03T02:57:11;8.10;;;3.95;;
24751;SDS011;27246;52.376;4.628;2023-04-03T03:02:14;6.82;;;4.07;;
24751;SDS011;27246;52.376;4.628;2023-04-03T03:07:15;8.35;;;3.80;;
24751;SDS011;27246;52.376;4.628;2023-04-03T03:12:17;9.15;;;3.63;;
24751;SDS011;27246;52.376;4.628;2023-04-03T03:17:23;5.65;;;3.30;;
24751;SDS011;27246;52.376;4.628;2023-04-03T03:22:25;6.72;;;3.50;;
24751;SDS011;27246;52.376;4.628;2023-04-03T03:27:27;7.18;;;3.40;;
24751;SDS011;27246;52.376;4.628;2023-04-03T03:32:29;5.78;;;3.22;;
24751;SDS011;27246;52.376;4.628;2023-04-03T03:37:31;5.35;;;3.03;;
24751;SDS011;27246;52.376;4.628;2023-04-03T03:42:33;4.55;;;3.03;;
24751;SDS011;27246;52.376;4.628;2023-04-03T03:47:36;4.93;;;3.15;;
24751;SDS011;27246;52.376;4.628;2023-04-03T03:52:38;5.70;;;3.13;;
24751;SDS011;27246;52.376;4.628;2023-04-03T03:57:40;5.68;;;3.33;;
24751;SDS011;27246;52.376;4.628;2023-04-03T04:02:42;4.03;;;3.08;;
24751;SDS011;27246;52.376;4.628;2023-04-03T04:07:48;8.57;;;3.92;;
24751;SDS011;27246;52.376;4.628;2023-04-03T04:12:50;4.13;;;2.83;;
24751;SDS011;27246;52.376;4.628;2023-04-03T04:17:56;4.45;;;3.17;;
24751;SDS011;27246;52.376;4.628;2023-04-03T04:22:59;4.75;;;3.35;;
24751;SDS011;27246;52.376;4.628;2023-04-03T04:28:02;5.85;;;3.80;;
24751;SDS011;27246;52.376;4.628;2023-04-03T04:33:04;8.18;;;4.00;;
24751;SDS011;27246;52.376;4.628;2023-04-03T04:38:07;6.18;;;3.47;;
24751;SDS011;27246;52.376;4.628;2023-04-03T04:43:10;5.40;;;3.80;;
24751;SDS011;27246;52.376;4.628;2023-04-03T04:48:17;5.50;;;3.35;;
24751;SDS011;27246;52.376;4.628;2023-04-03T04:53:19;3.92;;;3.20;;
24751;SDS011;27246;52.376;4.628;2023-04-03T04:58:21;5.28;;;3.20;;
24751;SDS011;27246;52.376;4.628;2023-04-03T05:03:23;5.55;;;3.88;;
24751;SDS011;27246;52.376;4.628;2023-04-03T05:08:25;4.60;;;3.03;;
24751;SDS011;27246;52.376;4.628;2023-04-03T05:13:27;5.90;;;3.97;;
24751;SDS011;27246;52.376;4.628;2023-04-03T05:18:30;6.47;;;3.90;;
24751;SDS011;27246;52.376;4.628;2023-04-03T05:23:35;6.35;;;4.50;;
24751;SDS011;27246;52.376;4.628;2023-04-03T05:28:38;6.15;;;3.85;;
24751;SDS011;27246;52.376;4.628;2023-04-03T05:33:41;8.32;;;3.20;;
24751;SDS011;27246;52.376;4.628;2023-04-03T05:38:48;9.52;;;3.47;;
24751;SDS011;27246;52.376;4.628;2023-04-03T05:43:50;6.63;;;4.40;;
24751;SDS011;27246;52.376;4.628;2023-04-03T05:48:54;7.28;;;3.78;;
24751;SDS011;27246;52.376;4.628;2023-04-03T05:54:00;5.95;;;4.55;;
24751;SDS011;27246;52.376;4.628;2023-04-03T05:59:09;6.60;;;4.43;;
24751;SDS011;27246;52.376;4.628;2023-04-03T06:04:12;9.52;;;5.00;;
24751;SDS011;27246;52.376;4.628;2023-04-03T06:09:15;8.20;;;4.63;;
24751;SDS011;27246;52.376;4.628;2023-04-03T06:14:18;7.60;;;4.68;;
24751;SDS011;27246;52.376;4.628;2023-04-03T06:19:20;6.22;;;3.90;;
24751;SDS011;27246;52.376;4.628;2023-04-03T06:24:25;9.40;;;4.72;;
24751;SDS011;27246;52.376;4.628;2023-04-03T06:29:27;9.77;;;4.38;;
24751;SDS011;27246;52.376;4.628;2023-04-03T06:34:29;7.30;;;3.85;;
24751;SDS011;27246;52.376;4.628;2023-04-03T06:39:31;6.70;;;3.58;;
24751;SDS011;27246;52.376;4.628;2023-04-03T06:44:32;8.07;;;3.65;;
24751;SDS011;27246;52.376;4.628;2023-04-03T06:49:35;4.90;;;3.30;;
24751;SDS011;27246;52.376;4.628;2023-04-03T06:54:38;4.93;;;3.50;;
24751;SDS011;27246;52.376;4.628;2023-04-03T06:59:40;7.70;;;3.83;;
24751;SDS011;27246;52.376;4.628;2023-04-03T07:04:43;8.05;;;3.08;;
24751;SDS011;27246;52.376;4.628;2023-04-03T07:09:45;6.00;;;2.47;;
24751;SDS011;27246;52.376;4.628;2023-04-03T07:14:49;6.93;;;2.60;;
24751;SDS011;27246;52.376;4.628;2023-04-03T07:19:51;4.25;;;2.10;;
24751;SDS011;27246;52.376;4.628;2023-04-03T07:24:53;6.32;;;2.20;;
24751;SDS011;27246;52.376;4.628;2023-04-03T07:29:54;4.03;;;2.20;;
24751;SDS011;27246;52.376;4.628;2023-04-03T07:34:57;3.83;;;2.58;;
24751;SDS011;27246;52.376;4.628;2023-04-03T07:39:59;9.65;;;2.47;;
24751;SDS011;27246;52.376;4.628;2023-04-03T07:45:03;6.00;;;2.15;;
24751;SDS011;27246;52.376;4.628;2023-04-03T07:50:05;4.40;;;2.00;;
24751;SDS011;27246;52.376;4.628;2023-04-03T07:55:07;4.47;;;1.73;;
24751;SDS011;27246;52.376;4.628;2023-04-03T08:00:09;3.47;;;2.00;;
24751;SDS011;27246;52.376;4.628;2023-04-03T08:05:15;4.60;;;2.55;;
24751;SDS011;27246;52.376;4.628;2023-04-03T08:10:17;6.18;;;3.10;;
24751;SDS011;27246;52.376;4.628;2023-04-03T08:15:18;5.97;;;2.45;;
24751;SDS011;27246;52.376;4.628;2023-04-03T08:20:21;4.07;;;2.50;;
24751;SDS011;27246;52.376;4.628;2023-04-03T08:25:23;4.97;;;2.45;;
24751;SDS011;27246;52.376;4.628;2023-04-03T08:30:25;4.45;;;3.03;;
24751;SDS011;27246;52.376;4.628;2023-04-03T08:35:27;5.03;;;1.75;;
24751;SDS011;27246;52.376;4.628;2023-04-03T08:40:29;4.05;;;1.38;;
24751;SDS011;27246;52.376;4.628;2023-04-03T08:50:58;4.10;;;1.83;;
24751;SDS011;27246;52.376;4.628;2023-04-03T08:56:04;4.13;;;2.13;;
24751;SDS011;27246;52.376;4.628;2023-04-03T09:01:20;5.57;;;1.65;;
24751;SDS011;27246;52.376;4.628;2023-04-03T09:06:26;2.95;;;1.30;;
24751;SDS011;27246;52.376;4.628;2023-04-03T09:22:00;2.00;;;1.30;;
24751;SDS011;27246;52.376;4.628;2023-04-03T09:27:12;4.22;;;0.82;;
24751;SDS011;27246;52.376;4.628;2023-04-03T09:32:19;3.72;;;1.10;;
24751;SDS011;27246;52.376;4.628;2023-04-03T09:42:44;1.40;;;0.70;;
24751;SDS011;27246;52.376;4.628;2023-04-03T09:48:06;3.45;;;1.50;;
24751;SDS011;27246;52.376;4.628;2023-04-03T09:53:36;3.92;;;1.48;;
24751;SDS011;27246;52.376;4.628;2023-04-03T09:58:40;1.98;;;1.42;;
24751;SDS011;27246;52.376;4.628;2023-04-03T10:04:02;2.75;;;1.30;;
24751;SDS011;27246;52.376;4.628;2023-04-03T10:14:27;2.17;;;1.30;;
24751;SDS011;27246;52.376;4.628;2023-04-03T10:29:52;2.95;;;1.10;;
24751;SDS011;27246;52.376;4.628;2023-04-03T10:55:43;2.67;;;1.50;;
24751;SDS011;27246;52.376;4.628;2023-04-03T11:00:54;5.47;;;1.85;;
24751;SDS011;27246;52.376;4.628;2023-04-03T11:06:05;1.73;;;1.05;;
24751;SDS011;27246;52.376;4.628;2023-04-03T11:11:19;3.33;;;1.20;;
24751;SDS011;27246;52.376;4.628;2023-04-03T11:16:24;2.58;;;0.90;;
24751;SDS011;27246;52.376;4.628;2023-04-03T11:21:29;1.42;;;0.93;;
24751;SDS011;27246;52.376;4.628;2023-04-03T11:26:38;4.73;;;1.30;;
24751;SDS011;27246;52.376;4.628;2023-04-03T11:42:25;1.40;;;0.70;;
24751;SDS011;27246;52.376;4.628;2023-04-03T11:47:54;2.15;;;0.90;;
24751;SDS011;27246;52.376;4.628;2023-04-03T11:58:27;1.48;;;0.93;;
24751;SDS011;27246;52.376;4.628;2023-04-03T12:18:58;1.75;;;0.93;;
24751;SDS011;27246;52.376;4.628;2023-04-03T12:29:33;1.80;;;0.70;;
24751;SDS011;27246;52.376;4.628;2023-04-03T12:51:14;3.13;;;0.90;;
24751;SDS011;27246;52.376;4.628;2023-04-03T12:56:23;4.28;;;0.77;;
24751;SDS011;27246;52.376;4.628;2023-04-03T13:01:27;3.10;;;1.10;;
24751;SDS011;27246;52.376;4.628;2023-04-03T13:06:34;1.58;;;0.88;;
24751;SDS011;27246;52.376;4.628;2023-04-03T13:11:40;1.50;;;0.85;;
24751;SDS011;27246;52.376;4.628;2023-04-03T13:16:57;1.58;;;0.88;;
24751;SDS011;27246;52.376;4.628;2023-04-03T13:22:05;2.28;;;0.65;;
24751;SDS011;27246;52.376;4.628;2023-04-03T13:27:25;3.80;;;1.20;;
24751;SDS011;27246;52.376;4.628;2023-04-03T13:32:28;2.13;;;0.90;;
24751;SDS011;27246;52.376;4.628;2023-04-03T13:37:32;2.55;;;1.10;;
24751;SDS011;27246;52.376;4.628;2023-04-03T13:42:37;1.40;;;0.90;;
24751;SDS011;27246;52.376;4.628;2023-04-03T13:47:43;1.95;;;1.15;;
24751;SDS011;27246;52.376;4.628;2023-04-03T13:52:52;3.25;;;1.15;;
24751;SDS011;27246;52.376;4.628;2023-04-03T14:03:17;1.88;;;1.00;;
24751;SDS011;27246;52.376;4.628;2023-04-03T14:08:23;1.80;;;1.08;;
24751;SDS011;27246;52.376;4.628;2023-04-03T14:13:42;2.90;;;1.30;;
24751;SDS011;27246;52.376;4.628;2023-04-03T14:18:45;2.70;;;1.00;;
24751;SDS011;27246;52.376;4.628;2023-04-03T14:23:49;3.38;;;1.20;;
24751;SDS011;27246;52.376;4.628;2023-04-03T14:28:51;2.58;;;1.17;;
24751;SDS011;27246;52.376;4.628;2023-04-03T14:33:55;2.13;;;1.50;;
24751;SDS011;27246;52.376;4.628;2023-04-03T14:38:57;3.63;;;1.15;;
24751;SDS011;27246;52.376;4.628;2023-04-03T14:43:59;2.60;;;0.90;;
24751;SDS011;27246;52.376;4.628;2023-04-03T14:49:01;2.22;;;1.42;;
24751;SDS011;27246;52.376;4.628;2023-04-03T14:54:05;3.30;;;1.52;;
24751;SDS011;27246;52.376;4.628;2023-04-03T14:59:13;4.80;;;2.08;;
24751;SDS011;27246;52.376;4.628;2023-04-03T15:04:16;4.50;;;1.50;;
24751;SDS011;27246;52.376;4.628;2023-04-03T15:09:24;2.47;;;1.73;;
24751;SDS011;27246;52.376;4.628;2023-04-03T15:14:27;2.25;;;1.50;;
24751;SDS011;27246;52.376;4.628;2023-04-03T15:19:37;2.38;;;1.75;;
24751;SDS011;27246;52.376;4.628;2023-04-03T15:24:40;3.08;;;1.23;;
24751;SDS011;27246;52.376;4.628;2023-04-03T15:29:42;1.33;;;1.23;;
24751;SDS011;27246;52.376;4.628;2023-04-03T15:34:45;2.15;;;1.95;;
24751;SDS011;27246;52.376;4.628;2023-04-03T15:39:46;2.53;;;1.38;;
24751;SDS011;27246;52.376;4.628;2023-04-03T15:44:48;3.65;;;2.13;;
24751;SDS011;27246;52.376;4.628;2023-04-03T15:49:50;5.68;;;2.85;;
24751;SDS011;27246;52.376;4.628;2023-04-03T15:54:52;2.30;;;1.42;;
24751;SDS011;27246;52.376;4.628;2023-04-03T15:59:54;3.97;;;1.52;;
24751;SDS011;27246;52.376;4.628;2023-04-03T16:04:56;4.40;;;2.55;;
24751;SDS011;27246;52.376;4.628;2023-04-03T16:09:58;1.73;;;1.08;;
24751;SDS011;27246;52.376;4.628;2023-04-03T16:15:00;4.68;;;1.40;;
24751;SDS011;27246;52.376;4.628;2023-04-03T16:20:02;3.47;;;2.17;;
24751;SDS011;27246;52.376;4.628;2023-04-03T16:25:05;4.85;;;2.08;;
24751;SDS011;27246;52.376;4.628;2023-04-03T16:30:09;2.10;;;1.27;;
24751;SDS011;27246;52.376;4.628;2023-04-03T16:35:11;4.45;;;1.27;;
24751;SDS011;27246;52.376;4.628;2023-04-03T16:40:13;2.20;;;1.98;;
24751;SDS011;27246;52.376;4.628;2023-04-03T16:45:15;4.18;;;2.00;;
24751;SDS011;27246;52.376;4.628;2023-04-03T16:50:19;7.22;;;3.28;;
24751;SDS011;27246;52.376;4.628;2023-04-03T16:55:22;4.05;;;2.10;;
24751;SDS011;27246;52.376;4.628;2023-04-03T17:00:23;3.55;;;2.13;;
24751;SDS011;27246;52.376;4.628;2023-04-03T17:05:25;4.03;;;1.92;;
24751;SDS011;27246;52.376;4.628;2023-04-03T17:10:37;5.95;;;3.05;;
24751;SDS011;27246;52.376;4.628;2023-04-03T17:15:40;3.65;;;2.10;;
24751;SDS011;27246;52.376;4.628;2023-04-03T17:20:42;4.18;;;2.55;;
24751;SDS011;27246;52.376;4.628;2023-04-03T17:25:44;5.20;;;2.70;;
24751;SDS011;27246;52.376;4.628;2023-04-03T17:30:47;1.90;;;1.25;;
24751;SDS011;27246;52.376;4.628;2023-04-03T17:35:49;2.50;;;1.75;;
24751;SDS011;27246;52.376;4.628;2023-04-03T17:40:51;4.55;;;1.73;;
24751;SDS011;27246;52.376;4.628;2023-04-03T17:45:53;5.47;;;2.20;;
24751;SDS011;27246;52.376;4.628;2023-04-03T17:51:11;3.83;;;1.77;;
24751;SDS011;27246;52.376;4.628;2023-04-03T17:56:18;3.88;;;2.25;;
24751;SDS011;27246;52.376;4.628;2023-04-03T18:01:26;3.70;;;1.88;;
24751;SDS011;27246;52.376;4.628;2023-04-03T18:06:33;5.80;;;1.55;;
24751;SDS011;27246;52.376;4.628;2023-04-03T18:11:40;3.47;;;1.70;;
24751;SDS011;27246;52.376;4.628;2023-04-03T18:16:45;3.75;;;1.83;;
24751;SDS011;27246;52.376;4.628;2023-04-03T18:21:47;5.15;;;1.75;;
24751;SDS011;27246;52.376;4.628;2023-04-03T18:26:50;2.90;;;1.67;;
24751;SDS011;27246;52.376;4.628;2023-04-03T18:31:56;2.83;;;1.55;;
24751;SDS011;27246;52.376;4.628;2023-04-03T18:37:01;3.97;;;1.77;;
24751;SDS011;27246;52.376;4.628;2023-04-03T18:42:13;3.08;;;2.10;;
24751;SDS011;27246;52.376;4.628;2023-04-03T18:47:24;4.18;;;2.58;;
24751;SDS011;27246;52.376;4.628;2023-04-03T18:52:28;5.68;;;2.85;;
24751;SDS011;27246;52.376;4.628;2023-04-03T18:57:30;4.75;;;2.90;;
24751;SDS011;27246;52.376;4.628;2023-04-03T19:02:32;5.00;;;2.55;;
24751;SDS011;27246;52.376;4.628;2023-04-03T19:07:34;6.07;;;3.05;;
24751;SDS011;27246;52.376;4.628;2023-04-03T19:12:35;8.18;;;2.95;;
24751;SDS011;27246;52.376;4.628;2023-04-03T19:17:37;8.95;;;3.45;;
24751;SDS011;27246;52.376;4.628;2023-04-03T19:22:40;4.68;;;2.10;;
24751;SDS011;27246;52.376;4.628;2023-04-03T19:27:42;3.30;;;1.85;;
24751;SDS011;27246;52.376;4.628;2023-04-03T19:32:44;3.13;;;2.00;;
24751;SDS011;27246;52.376;4.628;2023-04-03T19:37:47;4.18;;;2.22;;
24751;SDS011;27246;52.376;4.628;2023-04-03T19:42:51;4.28;;;2.55;;
24751;SDS011;27246;52.376;4.628;2023-04-03T19:47:53;3.72;;;2.10;;
24751;SDS011;27246;52.376;4.628;2023-04-03T19:52:55;3.38;;;2.50;;
24751;SDS011;27246;52.376;4.628;2023-04-03T19:57:57;6.78;;;2.30;;
24751;SDS011;27246;52.376;4.628;2023-04-03T20:03:00;3.75;;;1.80;;
24751;SDS011;27246;52.376;4.628;2023-04-03T20:08:02;4.72;;;2.60;;
24751;SDS011;27246;52.376;4.628;2023-04-03T20:13:04;4.25;;;2.38;;
24751;SDS011;27246;52.376;4.628;2023-04-03T20:18:10;15.25;;;9.02;;
24751;SDS011;27246;52.376;4.628;2023-04-03T20:23:18;5.27;;;4.00;;
24751;SDS011;27246;52.376;4.628;2023-04-03T20:28:21;3.85;;;2.45;;
24751;SDS011;27246;52.376;4.628;2023-04-03T20:33:23;5.68;;;3.58;;
24751;SDS011;27246;52.376;4.628;2023-04-03T20:38:26;6.38;;;2.60;;
24751;SDS011;27246;52.376;4.628;2023-04-03T20:43:28;7.13;;;2.85;;
24751;SDS011;27246;52.376;4.628;2023-04-03T20:48:30;3.95;;;2.28;;
24751;SDS011;27246;52.376;4.628;2023-04-03T20:53:32;5.65;;;3.65;;
24751;SDS011;27246;52.376;4.628;2023-04-03T20:58:35;6.45;;;3.30;;
24751;SDS011;27246;52.376;4.628;2023-04-03T21:03:39;6.13;;;4.20;;
24751;SDS011;27246;52.376;4.628;2023-04-03T21:20:00;5.10;;;2.40;;
24751;SDS011;27246;52.376;4.628;2023-04-03T21:25:02;3.83;;;2.22;;
24751;SDS011;27246;52.376;4.628;2023-04-03T21:30:04;3.53;;;2.40;;
24751;SDS011;27246;52.376;4.628;2023-04-03T21:35:06;3.50;;;1.95;;
24751;SDS011;27246;52.376;4.628;2023-04-03T21:40:09;4.93;;;2.40;;
24751;SDS011;27246;52.376;4.628;2023-04-03T21:45:11;4.93;;;2.10;;
24751;SDS011;27246;52.376;4.628;2023-04-03T21:50:16;3.55;;;2.25;;
24751;SDS011;27246;52.376;4.628;2023-04-03T21:55:19;2.30;;;1.73;;
24751;SDS011;27246;52.376;4.628;2023-04-03T22:00:21;4.38;;;2.20;;
24751;SDS011;27246;52.376;4.628;2023-04-03T22:05:23;3.88;;;2.17;;
24751;SDS011;27246;52.376;4.628;2023-04-03T22:10:25;5.72;;;2.10;;
24751;SDS011;27246;52.376;4.628;2023-04-03T22:15:27;4.40;;;2.75;;
24751;SDS011;27246;52.376;4.628;2023-04-03T22:20:28;3.45;;;2.50;;
24751;SDS011;27246;52.376;4.628;2023-04-03T22:25:30;4.78;;;1.95;;
24751;SDS011;27246;52.376;4.628;2023-04-03T22:30:32;5.68;;;4.07;;
24751;SDS011;27246;52.376;4.628;2023-04-03T22:35:34;6.07;;;2.55;;
24751;SDS011;27246;52.376;4.628;2023-04-03T22:40:36;3.80;;;2.40;;
24751;SDS011;27246;52.376;4.628;2023-04-03T22:45:47;4.43;;;2.15;;
24751;SDS011;27246;52.376;4.628;2023-04-03T22:50:50;3.72;;;2.00;;
24751;SDS011;27246;52.376;4.628;2023-04-03T23:01:05;4.60;;;2.10;;
24751;SDS011;27246;52.376;4.628;2023-04-03T23:06:09;3.00;;;1.80;;
24751;SDS011;27246;52.376;4.628;2023-04-03T23:11:13;5.68;;;1.85;;
24751;SDS011;27246;52.376;4.628;2023-04-03T23:16:15;3.45;;;1.48;;
24751;SDS011;27246;52.376;4.628;2023-04-03T23:21:17;2.60;;;1.60;;
24751;SDS011;27246;52.376;4.628;2023-04-03T23:26:19;3.75;;;1.88;;
24751;SDS011;27246;52.376;4.628;2023-04-03T23:31:21;2.28;;;1.40;;
24751;SDS011;27246;52.376;4.628;2023-04-03T23:36:23;4.82;;;1.88;;
24751;SDS011;27246;52.376;4.628;2023-04-03T23:41:25;3.35;;;2.28;;
24751;SDS011;27246;52.376;4.628;2023-04-03T23:46:27;6.65;;;2.67;;
24751;SDS011;27246;52.376;4.628;2023-04-03T23:51:29;4.55;;;2.67;;
24751;SDS011;27246;52.376;4.628;2023-04-03T23:56:30;4.03;;;2.40;;
